createdAt,value
2018-04-19T00:01:27.327Z,50.00
2018-04-19T00:03:54.818Z,49.90
2018-04-19T00:06:22.299Z,50.00
2018-04-19T00:08:49.759Z,49.90
2018-04-19T00:11:18.438Z,49.90
2018-04-19T00:13:45.917Z,49.90
2018-04-19T00:16:14.153Z,49.90
2018-04-19T00:18:41.629Z,49.90
2018-04-19T00:21:09.116Z,50.00
2018-04-19T00:23:36.596Z,49.90
2018-04-19T00:26:04.858Z,49.90
2018-04-19T00:28:32.329Z,50.00
2018-04-19T00:30:59.801Z,50.00
2018-04-19T00:33:27.330Z,50.00
2018-04-19T00:35:54.873Z,50.00
2018-04-19T00:38:23.793Z,50.00
2018-04-19T00:40:51.268Z,50.00
2018-04-19T00:43:18.741Z,50.00
2018-04-19T00:45:46.363Z,50.00
2018-04-19T00:48:14.585Z,50.10
2018-04-19T00:50:42.091Z,50.10
2018-04-19T00:53:09.581Z,50.00
2018-04-19T00:55:37.070Z,50.00
2018-04-19T00:58:05.305Z,50.00
2018-04-19T01:00:32.793Z,50.00
2018-04-19T01:03:00.266Z,50.00
2018-04-19T01:05:28.494Z,50.00
2018-04-19T01:07:55.974Z,50.00
2018-04-19T01:10:23.519Z,50.10
2018-04-19T01:12:50.934Z,50.10
2018-04-19T01:15:18.424Z,50.10
2018-04-19T01:17:45.918Z,50.00
2018-04-19T01:20:14.876Z,50.10
2018-04-19T01:22:42.380Z,50.00
2018-04-19T01:25:10.626Z,50.00
2018-04-19T01:27:38.088Z,50.10
2018-04-19T01:30:06.366Z,50.10
2018-04-19T01:32:33.852Z,50.10
2018-04-19T01:35:01.347Z,50.70
2018-04-19T01:37:28.794Z,50.10
2018-04-19T01:39:56.256Z,50.10
2018-04-19T01:42:23.738Z,50.10
2018-04-19T01:44:51.234Z,50.10
2018-04-19T01:47:18.698Z,50.10
2018-04-19T01:49:46.160Z,50.10
2018-04-19T01:52:13.694Z,50.10
2018-04-19T01:54:41.961Z,50.10
2018-04-19T01:57:10.222Z,50.10
2018-04-19T01:59:37.701Z,50.10
2018-04-19T02:02:06.083Z,50.10
2018-04-19T02:04:34.327Z,50.20
2018-04-19T02:07:01.800Z,50.20
2018-04-19T02:09:30.040Z,50.20
2018-04-19T02:11:57.518Z,50.20
2018-04-19T02:14:25.576Z,50.20
2018-04-19T02:16:53.042Z,49.70
2018-04-19T02:19:21.412Z,50.20
2018-04-19T02:21:48.872Z,50.20
2018-04-19T02:24:16.353Z,50.20
2018-04-19T02:26:44.584Z,50.30
2018-04-19T02:29:12.093Z,50.10
2018-04-19T02:31:40.340Z,50.10
2018-04-19T02:34:07.818Z,50.10
2018-04-19T02:36:36.136Z,50.30
2018-04-19T02:39:03.722Z,50.20
2018-04-19T02:41:31.238Z,50.10
2018-04-19T02:43:58.707Z,50.20
2018-04-19T02:46:26.685Z,50.10
2018-04-19T02:48:54.181Z,50.80
2018-04-19T02:51:21.700Z,50.10
2018-04-19T02:53:49.192Z,50.30
2018-04-19T02:56:16.667Z,50.20
2018-04-19T02:58:44.912Z,50.20
2018-04-19T03:01:13.639Z,50.30
2018-04-19T03:03:41.893Z,50.30
2018-04-19T03:06:10.133Z,50.30
2018-04-19T03:08:38.171Z,50.30
2018-04-19T03:11:05.656Z,50.30
2018-04-19T03:13:33.121Z,50.30
2018-04-19T03:16:00.616Z,50.30
2018-04-19T03:18:28.853Z,50.30
2018-04-19T03:20:56.350Z,50.30
2018-04-19T03:23:24.582Z,50.30
2018-04-19T03:25:52.077Z,50.30
2018-04-19T03:28:20.334Z,51.00
2018-04-19T03:30:47.832Z,51.00
2018-04-19T03:33:15.330Z,51.10
2018-04-19T03:35:42.796Z,51.20
2018-04-19T03:38:10.268Z,51.10
2018-04-19T03:40:37.752Z,51.10
2018-04-19T03:43:05.233Z,51.20
2018-04-19T03:45:33.356Z,51.20
2018-04-19T03:48:00.866Z,51.30
2018-04-19T03:50:28.340Z,51.30
2018-04-19T03:52:55.861Z,51.30
2018-04-19T03:55:23.333Z,51.30
2018-04-19T03:57:50.826Z,51.30
2018-04-19T04:00:18.897Z,51.30
2018-04-19T04:02:46.381Z,51.30
2018-04-19T04:05:14.669Z,51.30
2018-04-19T04:07:42.136Z,51.30
2018-04-19T04:10:09.645Z,51.30
2018-04-19T04:12:37.117Z,51.30
2018-04-19T04:15:04.589Z,51.30
2018-04-19T04:17:44.748Z,51.30
2018-04-19T04:20:23.944Z,51.90
2018-04-19T04:23:03.344Z,51.20
2018-04-19T04:25:30.841Z,51.20
2018-04-19T04:27:58.305Z,51.20
2018-04-19T04:30:25.773Z,51.10
2018-04-19T04:32:53.236Z,51.10
2018-04-19T04:35:20.769Z,51.10
2018-04-19T04:37:48.193Z,51.20
2018-04-19T04:40:15.718Z,51.20
2018-04-19T04:42:43.237Z,51.20
2018-04-19T04:45:10.705Z,51.20
2018-04-19T04:47:38.208Z,51.10
2018-04-19T04:50:05.704Z,51.10
2018-04-19T04:52:33.240Z,51.10
2018-04-19T04:55:01.295Z,51.10
2018-04-19T04:57:28.781Z,51.00
2018-04-19T04:59:56.300Z,51.40
2018-04-19T05:02:23.806Z,51.80
2018-04-19T05:04:51.290Z,51.60
2018-04-19T05:07:19.567Z,51.30
2018-04-19T05:09:47.194Z,51.30
2018-04-19T05:12:14.700Z,51.40
2018-04-19T05:14:43.001Z,51.10
2018-04-19T05:17:10.500Z,51.10
2018-04-19T05:19:38.696Z,51.10
2018-04-19T05:22:06.937Z,51.00
2018-04-19T05:24:35.029Z,51.00
2018-04-19T05:27:03.307Z,51.30
2018-04-19T05:29:30.789Z,50.90
2018-04-19T05:31:58.285Z,50.90
2018-04-19T05:34:25.776Z,50.80
2018-04-19T05:36:53.857Z,50.80
2018-04-19T05:39:22.092Z,50.90
2018-04-19T05:41:49.617Z,50.80
2018-04-19T05:44:17.128Z,50.90
2018-04-19T05:46:44.641Z,51.40
2018-04-19T05:49:12.168Z,51.80
2018-04-19T05:51:40.470Z,51.50
2018-04-19T05:54:07.986Z,51.50
2018-04-19T05:56:35.535Z,51.50
2018-04-19T05:59:03.162Z,51.50
2018-04-19T06:01:30.682Z,51.40
2018-04-19T06:03:58.961Z,51.30
2018-04-19T06:06:27.237Z,51.30
2018-04-19T06:08:54.923Z,51.30
2018-04-19T06:11:22.446Z,51.20
2018-04-19T06:13:52.161Z,51.10
2018-04-19T06:16:20.452Z,50.80
2018-04-19T06:18:48.071Z,50.80
2018-04-19T06:21:15.601Z,50.60
2018-04-19T06:23:43.155Z,50.60
2018-04-19T06:26:10.777Z,50.50
2018-04-19T06:28:38.335Z,50.40
2018-04-19T06:31:06.592Z,50.50
2018-04-19T06:33:34.105Z,50.50
2018-04-19T06:36:01.660Z,50.20
2018-04-19T06:38:29.915Z,50.20
2018-04-19T06:40:57.449Z,50.20
2018-04-19T06:43:25.736Z,50.20
2018-04-19T06:45:54.004Z,50.10
2018-04-19T06:48:22.257Z,50.20
2018-04-19T06:50:49.802Z,50.20
2018-04-19T06:53:17.352Z,50.00
2018-04-19T06:55:44.919Z,49.90
2018-04-19T06:58:12.421Z,49.80
2018-04-19T07:00:40.697Z,49.30
2018-04-19T07:03:08.972Z,49.00
2018-04-19T07:05:38.085Z,49.10
2018-04-19T07:08:05.681Z,49.10
2018-04-19T07:10:33.336Z,49.00
2018-04-19T07:13:00.873Z,49.00
2018-04-19T07:15:28.471Z,49.00
2018-04-19T07:17:55.979Z,49.00
2018-04-19T07:20:23.469Z,49.10
2018-04-19T07:22:50.975Z,49.00
2018-04-19T07:25:19.252Z,49.20
2018-04-19T07:27:47.661Z,49.40
2018-04-19T07:30:15.266Z,49.40
2018-04-19T07:32:42.804Z,49.60
2018-04-19T07:35:10.356Z,49.70
2018-04-19T07:37:37.937Z,50.10
2018-04-19T07:40:05.528Z,50.30
2018-04-19T07:42:34.031Z,50.40
2018-04-19T07:45:01.598Z,50.60
2018-04-19T07:47:29.228Z,50.60
2018-04-19T07:49:57.516Z,50.80
2018-04-19T07:52:25.044Z,50.80
2018-04-19T07:54:53.355Z,50.40
2018-04-19T07:57:21.004Z,50.40
2018-04-19T07:59:48.538Z,50.40
2018-04-19T08:02:17.565Z,50.50
2018-04-19T08:04:45.092Z,50.50
2018-04-19T08:07:13.361Z,50.50
2018-04-19T08:09:41.003Z,50.50
2018-04-19T08:12:08.506Z,50.60
2018-04-19T08:14:36.100Z,50.60
2018-04-19T08:17:03.617Z,50.70
2018-04-19T08:19:31.122Z,50.60
2018-04-19T08:21:58.721Z,50.30
2018-04-19T08:24:27.022Z,49.80
2018-04-19T08:26:54.527Z,49.80
2018-04-19T08:29:22.030Z,49.90
2018-04-19T08:31:50.343Z,50.30
2018-04-19T08:34:18.102Z,50.30
2018-04-19T08:36:45.726Z,50.30
2018-04-19T08:39:14.193Z,50.30
2018-04-19T08:41:43.069Z,50.30
2018-04-19T08:44:10.713Z,50.30
2018-04-19T08:46:38.451Z,50.10
2018-04-19T08:49:07.297Z,49.30
2018-04-19T08:51:35.983Z,48.80
2018-04-19T08:54:04.517Z,48.70
2018-04-19T08:56:32.200Z,48.70
2018-04-19T08:59:00.929Z,48.80
2018-04-19T09:01:29.466Z,48.80
2018-04-19T09:03:57.729Z,48.90
2018-04-19T09:06:25.742Z,48.70
2018-04-19T09:08:54.049Z,48.30
2018-04-19T09:11:21.583Z,48.30
2018-04-19T09:13:49.569Z,48.20
2018-04-19T09:16:17.197Z,48.40
2018-04-19T09:18:45.868Z,49.60
2018-04-19T09:21:13.418Z,48.80
2018-04-19T09:23:41.722Z,48.30
2018-04-19T09:26:09.486Z,48.70
2018-04-19T09:49:06.566Z,48.10
2018-04-19T09:51:35.447Z,48.30
2018-04-19T09:54:03.151Z,48.30
2018-04-19T09:56:30.574Z,48.10
2018-04-19T09:59:10.897Z,47.00
2018-04-19T10:01:44.032Z,47.00
2018-04-19T10:04:14.434Z,45.70
2018-04-19T10:06:41.922Z,45.60
2018-04-19T10:09:09.429Z,45.40
2018-04-19T10:11:36.960Z,45.90
2018-04-19T10:14:04.470Z,45.80
2018-04-19T10:16:32.751Z,44.90
2018-04-19T10:19:01.494Z,44.90
2018-04-19T10:21:29.195Z,44.80
2018-04-19T10:23:56.572Z,44.80
2018-04-19T10:26:24.065Z,44.40
2018-04-19T10:28:53.070Z,43.80
2018-04-19T10:31:20.578Z,43.80
2018-04-19T10:33:48.115Z,43.70
2018-04-19T10:36:15.681Z,42.20
2018-04-19T10:38:44.112Z,41.50
2018-04-19T10:41:11.759Z,41.50
2018-04-19T10:43:39.318Z,41.10
2018-04-19T10:46:07.431Z,41.20
2018-04-19T10:48:35.145Z,41.30
2018-04-19T10:51:02.815Z,41.10
2018-04-19T10:53:30.467Z,41.20
2018-04-19T10:55:58.818Z,41.60
2018-04-19T10:58:27.335Z,41.10
2018-04-19T11:00:54.991Z,41.10
2018-04-19T11:03:23.262Z,39.20
2018-04-19T11:05:51.131Z,39.10
2018-04-19T11:08:19.767Z,37.90
2018-04-19T11:10:47.604Z,37.20
2018-04-19T11:13:16.258Z,37.70
2018-04-19T11:15:44.303Z,37.60
2018-04-19T11:18:12.780Z,38.80
2018-04-19T11:20:40.399Z,38.80
2018-04-19T11:23:08.016Z,39.80
2018-04-19T11:25:36.245Z,40.30
2018-04-19T11:28:03.815Z,40.80
2018-04-19T11:30:32.922Z,41.40
2018-04-19T11:33:01.683Z,41.40
2018-04-19T11:35:29.370Z,41.60
2018-04-19T11:37:57.026Z,41.80
2018-04-19T11:40:24.775Z,42.20
2018-04-19T11:42:52.531Z,42.20
2018-04-19T11:45:21.899Z,42.30
2018-04-19T11:47:49.792Z,42.40
2018-04-19T11:50:17.495Z,43.00
2018-04-19T11:52:45.272Z,42.70
2018-04-19T11:55:13.516Z,43.00
2018-04-19T11:57:41.127Z,42.80
2018-04-19T12:00:09.462Z,43.30
2018-04-19T12:02:37.196Z,43.10
2018-04-19T12:05:05.467Z,43.10
2018-04-19T12:07:32.983Z,43.40
2018-04-19T12:10:00.681Z,43.40
2018-04-19T12:12:28.222Z,43.30
2018-04-19T12:14:57.272Z,42.50
2018-04-19T12:17:26.469Z,42.90
2018-04-19T12:19:54.075Z,42.80
2018-04-19T12:22:22.581Z,42.70
2018-04-19T12:24:52.046Z,42.60
2018-04-19T12:27:19.705Z,42.30
2018-04-19T12:29:47.521Z,42.10
2018-04-19T12:32:15.158Z,42.00
2018-04-19T12:34:42.947Z,41.90
2018-04-19T12:37:10.582Z,42.00
2018-04-19T12:39:38.214Z,42.40
2018-04-19T12:42:05.759Z,41.20
2018-04-19T12:44:33.288Z,40.90
2018-04-19T12:53:57.665Z,40.90
2018-04-19T12:56:25.317Z,40.20
2018-04-19T12:58:52.915Z,40.20
2018-04-19T13:01:20.513Z,40.90
2018-04-19T13:03:48.056Z,41.20
2018-04-19T13:06:16.249Z,41.50
2018-04-19T13:08:44.373Z,41.30
2018-04-19T13:11:11.993Z,41.70
2018-04-19T13:33:39.301Z,42.10
2018-04-19T13:36:07.097Z,41.90
2018-04-19T13:38:36.261Z,42.10
2018-04-19T13:41:04.650Z,42.00
2018-04-19T13:43:32.714Z,41.90
2018-04-19T13:46:00.471Z,41.70
2018-04-19T13:48:28.816Z,41.90
2018-04-19T13:50:56.398Z,41.60
2018-04-19T13:53:24.097Z,42.10
2018-04-19T13:55:51.653Z,42.00
2018-04-19T13:58:19.296Z,41.70
2018-04-19T14:00:46.963Z,41.90
2018-04-19T14:03:14.704Z,41.30
2018-04-19T14:05:42.446Z,40.80
2018-04-19T14:08:10.951Z,40.30
2018-04-19T14:10:38.757Z,40.00
2018-04-19T14:13:06.333Z,39.60
2018-04-19T14:15:34.574Z,39.30
2018-04-19T14:18:03.679Z,39.00
2018-04-19T14:20:31.299Z,39.10
2018-04-19T14:23:00.771Z,40.00
2018-04-19T14:25:28.464Z,40.50
2018-04-19T14:27:56.119Z,40.30
2018-04-19T14:30:23.786Z,40.10
2018-04-19T14:32:51.447Z,40.20
2018-04-19T14:35:19.100Z,40.40
2018-04-19T14:37:46.920Z,40.60
2018-04-19T14:40:14.566Z,40.70
2018-04-19T14:42:42.722Z,40.10
2018-04-19T14:45:10.563Z,39.80
2018-04-19T14:47:39.176Z,40.00
2018-04-19T14:50:07.492Z,40.00
2018-04-19T14:52:35.630Z,40.40
2018-04-19T14:55:03.390Z,40.00
2018-04-19T14:57:31.117Z,40.10
2018-04-19T14:59:58.835Z,40.00
2018-04-19T15:02:27.239Z,40.30
2018-04-19T15:04:54.991Z,40.30
2018-04-19T15:07:22.730Z,40.30
2018-04-19T15:09:51.372Z,40.20
2018-04-19T15:12:18.972Z,40.00
2018-04-19T15:14:46.523Z,40.20
2018-04-19T15:17:14.183Z,40.10
2018-04-19T15:19:41.953Z,39.90
2018-04-19T15:22:09.591Z,39.80
2018-04-19T15:24:37.160Z,39.80
2018-04-19T15:27:06.014Z,40.00
2018-04-19T15:29:33.542Z,40.00
2018-04-19T15:32:01.824Z,40.00
2018-04-19T15:34:29.334Z,40.60
2018-04-19T15:36:57.572Z,41.00
2018-04-19T15:39:25.177Z,41.10
2018-04-19T15:41:52.679Z,41.20
2018-04-19T15:44:20.206Z,41.30
2018-04-19T15:46:47.809Z,41.30
2018-04-19T15:49:15.430Z,41.40
2018-04-19T15:51:43.328Z,41.50
2018-04-19T15:54:11.609Z,41.70
2018-04-19T15:56:39.162Z,41.80
2018-04-19T15:59:06.775Z,41.80
2018-04-19T16:01:34.358Z,41.90
2018-04-19T16:04:01.944Z,42.00
2018-04-19T16:06:29.690Z,42.10
2018-04-19T16:08:57.481Z,42.20
2018-04-19T16:11:25.149Z,42.30
2018-04-19T16:13:52.811Z,42.30
2018-04-19T16:16:20.565Z,42.40
2018-04-19T16:18:49.011Z,42.50
2018-04-19T16:21:16.752Z,42.50
2018-04-19T16:23:44.431Z,42.60
2018-04-19T16:26:12.062Z,42.60
2018-04-19T16:28:39.693Z,42.60
2018-04-19T16:31:07.459Z,42.70
2018-04-19T16:33:35.163Z,42.70
2018-04-19T16:36:02.899Z,42.70
2018-04-19T16:38:30.541Z,42.80
2018-04-19T16:40:58.873Z,42.80
2018-04-19T16:43:26.505Z,42.90
2018-04-19T16:45:54.146Z,42.90
2018-04-19T16:48:21.736Z,43.00
2018-04-19T16:50:49.384Z,43.10
2018-04-19T16:53:17.091Z,43.10
2018-04-19T16:55:44.707Z,43.20
2018-04-19T16:58:12.336Z,43.20
2018-04-19T17:00:40.050Z,43.30
2018-04-19T17:03:07.644Z,43.30
2018-04-19T17:05:35.309Z,43.40
2018-04-19T17:08:02.842Z,43.70
2018-04-19T17:10:30.492Z,43.40
2018-04-19T17:12:58.291Z,43.40
2018-04-19T17:15:27.421Z,43.40
2018-04-19T17:17:55.022Z,43.50
2018-04-19T17:20:23.427Z,43.50
2018-04-19T17:22:52.017Z,43.50
2018-04-19T17:25:19.701Z,43.50
2018-04-19T17:27:48.138Z,43.60
2018-04-19T17:30:15.846Z,43.70
2018-04-19T17:32:43.549Z,43.70
2018-04-19T17:35:11.130Z,43.70
2018-04-19T17:37:38.871Z,43.70
2018-04-19T17:40:06.450Z,43.80
2018-04-19T17:42:34.009Z,43.80
2018-04-19T17:45:01.786Z,43.80
2018-04-19T17:47:30.040Z,43.90
2018-04-19T17:49:57.845Z,43.90
2018-04-19T17:52:25.470Z,43.90
2018-04-19T17:54:53.124Z,43.90
2018-04-19T17:57:21.603Z,44.00
2018-04-19T17:59:49.359Z,44.60
2018-04-19T18:02:17.021Z,44.00
2018-04-19T18:04:45.530Z,44.10
2018-04-19T18:07:13.098Z,44.00
2018-04-19T18:09:40.751Z,44.00
2018-04-19T18:12:08.481Z,44.10
2018-04-19T18:14:36.200Z,44.20
2018-04-19T18:17:03.789Z,44.20
2018-04-19T18:19:31.475Z,44.30
2018-04-19T18:21:59.071Z,44.20
2018-04-19T18:24:27.495Z,44.30
2018-04-19T18:26:55.200Z,44.30
2018-04-19T18:29:22.949Z,44.30
2018-04-19T18:31:51.502Z,44.30
2018-04-19T18:34:19.786Z,44.40
2018-04-19T18:36:47.576Z,44.30
2018-04-19T18:39:15.317Z,44.40
2018-04-19T18:41:43.090Z,44.40
2018-04-19T18:44:10.857Z,44.40
2018-04-19T18:46:39.082Z,44.40
2018-04-19T18:49:06.770Z,44.50
2018-04-19T18:51:34.488Z,44.50
2018-04-19T18:54:02.197Z,44.50
2018-04-19T18:56:29.972Z,44.50
2018-04-19T18:58:57.612Z,44.50
2018-04-19T19:01:25.306Z,44.50
2018-04-19T19:03:53.059Z,44.50
2018-04-19T19:06:21.191Z,44.50
2018-04-19T19:08:48.766Z,44.50
2018-04-19T19:11:16.407Z,44.60
2018-04-19T19:13:44.142Z,44.60
2018-04-19T19:16:11.887Z,44.70
2018-04-19T19:18:52.064Z,44.70
2018-04-19T19:21:24.367Z,44.70
2018-04-19T19:23:52.148Z,44.70
2018-04-19T19:26:19.891Z,44.80
2018-04-19T19:28:47.596Z,44.70
2018-04-19T19:31:15.252Z,44.80
2018-04-19T19:33:42.898Z,44.90
2018-04-19T19:36:10.601Z,44.80
2018-04-19T19:38:38.233Z,44.80
2018-04-19T19:41:06.541Z,44.90
2018-04-19T19:43:34.876Z,44.90
2018-04-19T19:46:02.521Z,44.90
2018-04-19T19:48:30.187Z,44.90
2018-04-19T19:50:58.023Z,44.90
2018-04-19T19:53:26.525Z,45.00
2018-04-19T19:55:54.202Z,45.00
2018-04-19T19:58:21.846Z,45.00
2018-04-19T20:00:49.450Z,45.00
2018-04-19T20:03:17.057Z,45.10
2018-04-19T20:05:45.617Z,45.10
2018-04-19T20:08:13.359Z,45.10
2018-04-19T20:10:41.489Z,45.10
2018-04-19T20:13:09.870Z,45.10
2018-04-19T20:15:37.501Z,45.20
2018-04-19T20:18:05.053Z,45.20
2018-04-19T20:20:32.971Z,45.20
2018-04-19T20:23:00.702Z,45.30
2018-04-19T20:25:28.542Z,45.50
2018-04-19T20:27:56.162Z,45.20
2018-04-19T20:30:23.809Z,45.20
2018-04-19T20:32:51.438Z,45.20
2018-04-19T20:35:19.929Z,45.30
2018-04-19T20:37:47.436Z,45.30
2018-04-19T20:40:15.104Z,45.20
2018-04-19T20:42:42.667Z,45.30
2018-04-19T20:45:10.248Z,45.30
2018-04-19T20:47:37.898Z,45.40
2018-04-19T20:50:06.408Z,45.40
2018-04-19T20:52:34.237Z,45.40
2018-04-19T20:55:02.642Z,45.50
2018-04-19T20:57:30.325Z,45.40
2018-04-19T20:59:58.360Z,45.50
2018-04-19T21:05:00.686Z,45.50
2018-04-19T21:07:28.271Z,45.50
2018-04-19T21:09:55.996Z,45.50
2018-04-19T21:12:23.894Z,45.50
2018-04-19T21:14:51.620Z,45.60
2018-04-19T21:17:19.290Z,45.50
2018-04-19T21:19:46.997Z,45.60
2018-04-19T21:22:14.677Z,45.60
2018-04-19T21:24:42.325Z,45.60
2018-04-19T21:27:09.916Z,45.70
2018-04-19T21:29:37.532Z,46.30
2018-04-19T21:32:06.236Z,45.70
2018-04-19T21:34:33.975Z,45.70
2018-04-19T21:37:01.782Z,45.70
2018-04-19T21:39:29.364Z,45.70
2018-04-19T21:41:57.074Z,45.70
2018-04-19T21:44:24.683Z,45.70
2018-04-19T21:46:52.347Z,45.70
2018-04-19T21:49:19.980Z,45.80
2018-04-19T21:51:47.704Z,45.80
2018-04-19T21:54:15.425Z,45.80
2018-04-19T21:56:42.998Z,45.80
2018-04-19T21:59:11.562Z,45.90
2018-04-19T22:01:39.201Z,45.90
2018-04-19T22:04:06.918Z,45.90
2018-04-19T22:06:34.589Z,45.90
2018-04-19T22:09:03.004Z,45.90
2018-04-19T22:11:30.768Z,45.90
2018-04-19T22:13:59.224Z,46.00
2018-04-19T22:16:27.588Z,46.00
2018-04-19T22:18:55.408Z,46.00
2018-04-19T22:21:22.925Z,46.00
2018-04-19T22:23:50.496Z,46.00
2018-04-19T22:26:18.087Z,46.10
2018-04-19T22:28:45.722Z,46.10
2018-04-19T22:31:13.348Z,46.00
2018-04-19T22:33:40.985Z,46.00
2018-04-19T22:36:08.614Z,46.10
2018-04-19T22:38:36.268Z,46.10
2018-04-19T22:41:03.910Z,46.10
2018-04-19T22:43:31.642Z,46.10
2018-04-19T22:45:59.919Z,46.10
2018-04-19T22:48:27.452Z,46.10
2018-04-19T22:50:55.092Z,46.10
2018-04-19T22:53:22.782Z,46.20
2018-04-19T22:55:50.566Z,46.20
2018-04-19T22:58:18.524Z,46.20
2018-04-19T23:00:46.299Z,46.20
2018-04-19T23:03:14.069Z,46.30
2018-04-19T23:05:42.514Z,46.30
2018-04-19T23:08:10.155Z,46.30
2018-04-19T23:10:37.879Z,46.30
2018-04-19T23:13:05.527Z,46.30
2018-04-19T23:15:33.164Z,46.30
2018-04-19T23:18:00.983Z,46.30
2018-04-19T23:20:29.501Z,46.40
2018-04-19T23:22:57.266Z,46.30
2018-04-19T23:25:24.933Z,46.40
2018-04-19T23:27:52.679Z,46.50
2018-04-19T23:30:21.107Z,46.50
2018-04-19T23:32:48.826Z,46.40
2018-04-19T23:35:17.216Z,46.40
2018-04-19T23:37:44.744Z,46.40
2018-04-19T23:40:12.379Z,46.40
2018-04-19T23:42:39.969Z,46.40
2018-04-19T23:45:08.425Z,46.40
2018-04-19T23:47:36.137Z,46.40
2018-04-19T23:50:03.807Z,46.40
2018-04-19T23:52:31.529Z,46.50
2018-04-19T23:54:59.870Z,46.50
2018-04-19T23:57:27.521Z,46.50
2018-04-19T23:59:56.216Z,46.50
